Time;durP1;ratioP1;P1;durP2;ratioP2;P2;SDS_P1;SDS_P2;PMS_P1;PMS_P2;Temp;Humidity;BMP_temperature;BMP_pressure;BME280_temperature;BME280_humidity;BME280_pressure;Samples;Min_cycle;Max_cycle;Signal;HPM_P1;HPM_P2
2022/07/18 00:00:25;;;;;;;2.60;2.40;;;;;;;16.28;100.00;97082.78;5073034;27;103049;-62
2022/07/18 00:02:52;;;;;;;2.43;2.33;;;;;;;16.22;100.00;97083.03;5091364;27;102099;-62
2022/07/18 00:05:19;;;;;;;2.80;2.60;;;;;;;15.81;100.00;97089.47;5072983;27;102325;-62
2022/07/18 00:07:47;;;;;;;2.70;2.50;;;;;;;15.75;100.00;97093.19;5072651;27;102696;-61
2022/07/18 00:10:16;;;;;;;3.93;2.70;;;;;;;15.60;100.00;97090.47;5072768;27;102115;-62
2022/07/18 00:12:43;;;;;;;2.90;2.63;;;;;;;15.66;100.00;97098.28;5072302;27;102380;-62
2022/07/18 00:15:11;;;;;;;2.97;2.77;;;;;;;15.91;100.00;97097.53;5072370;27;102578;-62
2022/07/18 00:17:38;;;;;;;4.80;2.73;;;;;;;15.89;100.00;97097.78;5072987;27;101751;-62
2022/07/18 00:20:06;;;;;;;2.77;2.50;;;;;;;16.31;100.00;97094.84;5088596;27;105474;-62
2022/07/18 00:22:34;;;;;;;3.10;2.80;;;;;;;16.30;100.00;97096.72;5075280;27;102589;-62
2022/07/18 00:25:01;;;;;;;2.70;2.50;;;;;;;16.30;100.00;97096.72;5088548;27;106013;-62
2022/07/18 00:27:29;;;;;;;4.37;2.73;;;;;;;16.36;100.00;97097.53;5072157;27;102509;-62
2022/07/18 00:29:56;;;;;;;3.63;3.03;;;;;;;16.25;100.00;97090.56;5054030;27;101896;-62
2022/07/18 00:32:23;;;;;;;2.80;2.60;;;;;;;16.26;100.00;97094.84;5053987;27;103870;-62
2022/07/18 00:34:50;;;;;;;2.87;2.67;;;;;;;16.16;100.00;97089.47;5087647;27;103781;-62
2022/07/18 00:37:18;;;;;;;2.93;2.73;;;;;;;15.79;100.00;97084.34;5053810;27;101914;-62
2022/07/18 00:39:45;;;;;;;3.07;2.87;;;;;;;15.70;100.00;97083.25;5072664;27;102337;-62
2022/07/18 00:42:12;;;;;;;2.73;2.53;;;;;;;16.10;100.00;97091.38;5071604;27;102723;-62
2022/07/18 00:44:40;;;;;;;3.03;2.77;;;;;;;16.03;100.00;97092.69;5057415;27;101823;-62
2022/07/18 00:47:07;;;;;;;2.80;2.60;;;;;;;15.91;100.00;97086.78;5071788;27;101968;-62
2022/07/18 00:49:34;;;;;;;2.53;2.33;;;;;;;15.75;100.00;97085.16;5072241;27;101881;-61
2022/07/18 00:52:01;;;;;;;2.73;2.53;;;;;;;15.55;100.00;97093.97;5072293;27;102563;-62
2022/07/18 00:54:31;;;;;;;4.23;3.10;;;;;;;15.48;100.00;97084.56;5071110;27;102613;-62
2022/07/18 00:56:58;;;;;;;4.87;2.87;;;;;;;15.75;100.00;97087.84;5072242;27;101887;-62
2022/07/18 01:01:42;;;;;;;2.60;2.40;;;;;;;15.77;100.00;97083.81;5053750;27;105725;-62
2022/07/18 01:02:13;;;;;;;3.00;2.80;;;;;;;15.48;100.00;97090.72;5070869;27;102717;-62
2022/07/18 01:04:40;;;;;;;3.50;2.60;;;;;;;15.47;100.00;97091.00;5072313;27;102070;-62
2022/07/18 01:07:07;;;;;;;3.20;2.60;;;;;;;15.67;100.00;97086.47;5075059;27;102388;-62
2022/07/18 01:09:35;;;;;;;2.70;2.50;;;;;;;15.64;100.00;97092.38;5053522;27;101990;-62
2022/07/18 01:12:03;;;;;;;2.73;2.53;;;;;;;15.71;100.00;97087.56;5071701;27;102464;-62
2022/07/18 01:14:31;;;;;;;3.13;2.83;;;;;;;15.47;100.00;97085.63;5071466;27;102469;-62
2022/07/18 01:16:58;;;;;;;2.57;2.37;;;;;;;15.67;100.00;97085.66;5071952;27;101962;-61
2022/07/18 01:19:27;;;;;;;2.67;2.47;;;;;;;15.75;100.00;97082.47;5053493;27;103612;-62
2022/07/18 01:21:56;;;;;;;3.00;2.80;;;;;;;15.54;100.00;97080.81;5070943;27;103248;-62
2022/07/18 01:24:23;;;;;;;3.47;3.10;;;;;;;15.84;100.00;97088.91;5071712;27;102427;-62
2022/07/18 01:26:51;;;;;;;3.23;2.90;;;;;;;15.84;100.00;97079.00;5071702;27;102676;-62
2022/07/18 01:29:19;;;;;;;2.67;2.47;;;;;;;15.86;100.00;97078.75;5039471;27;105323;-62
2022/07/18 01:31:46;;;;;;;2.83;2.63;;;;;;;15.43;100.00;97082.66;5071745;27;102595;-62
2022/07/18 01:34:13;;;;;;;2.80;2.57;;;;;;;15.67;100.00;97088.34;5070870;27;102546;-62
2022/07/18 01:36:40;;;;;;;2.50;2.20;;;;;;;15.77;100.00;97094.56;5052663;27;102143;-62
2022/07/18 01:39:09;;;;;;;2.57;2.37;;;;;;;15.60;100.00;97087.81;5071759;27;102919;-62
2022/07/18 01:41:36;;;;;;;2.80;2.60;;;;;;;15.36;100.00;97082.09;5070886;27;103233;-61
2022/07/18 01:44:04;;;;;;;3.27;2.97;;;;;;;15.05;100.00;97085.69;5071549;27;101916;-62
2022/07/18 01:46:32;;;;;;;3.00;2.80;;;;;;;15.14;100.00;97088.66;5071616;27;103025;-62
2022/07/18 01:48:59;;;;;;;3.77;2.57;;;;;;;15.22;100.00;97091.69;5068512;27;102713;-62
2022/07/18 01:51:26;;;;;;;4.23;3.17;;;;;;;15.16;100.00;97090.03;5075003;27;101826;-62
2022/07/18 01:54:01;;;;;;;3.20;3.00;;;;;;;15.23;100.00;97090.63;5070715;27;102608;-61
2022/07/18 01:56:30;;;;;;;2.80;2.60;;;;;;;15.37;100.00;97090.97;5052945;27;101804;-61
2022/07/18 01:58:58;;;;;;;3.00;2.80;;;;;;;15.49;100.00;97094.22;5071490;27;102577;-62
2022/07/18 02:01:25;;;;;;;2.90;2.70;;;;;;;15.48;100.00;97090.72;5070429;27;102855;-62
2022/07/18 02:03:52;;;;;;;2.90;2.50;;;;;;;15.41;100.00;97092.03;5052638;27;102293;-62
2022/07/18 02:06:19;;;;;;;2.63;2.40;;;;;;;15.53;100.00;97095.31;5052123;27;103747;-62
2022/07/18 02:08:47;;;;;;;2.70;2.50;;;;;;;15.42;100.00;97093.66;5070266;27;103245;-59
2022/07/18 02:11:14;;;;;;;3.37;3.03;;;;;;;15.07;100.00;97096.97;5074480;27;101902;-59
2022/07/18 02:13:43;;;;;;;3.37;2.90;;;;;;;15.12;100.00;97097.00;5070050;27;102577;-62
2022/07/18 02:16:10;;;;;;;2.70;2.50;;;;;;;15.25;100.00;97096.50;5070948;27;102200;-62
2022/07/18 02:18:37;;;;;;;3.17;2.90;;;;;;;15.13;100.00;97101.28;5071217;27;102340;-61
2022/07/18 02:21:05;;;;;;;3.70;3.00;;;;;;;15.26;100.00;97091.97;5070332;27;103063;-62
2022/07/18 02:23:32;;;;;;;4.13;3.00;;;;;;;15.26;100.00;97086.59;5071012;27;102117;-62
2022/07/18 02:25:59;;;;;;;3.23;3.03;;;;;;;15.26;100.00;97089.28;5070647;27;102532;-62
2022/07/18 02:28:26;;;;;;;3.67;3.17;;;;;;;15.47;100.00;97083.75;5070443;27;103094;-61
2022/07/18 02:30:55;;;;;;;4.20;3.07;;;;;;;15.39;100.00;97078.09;5070865;27;101924;-62
2022/07/18 02:33:22;;;;;;;3.13;2.90;;;;;;;15.49;100.00;97083.47;5073655;27;102590;-62
2022/07/18 02:35:49;;;;;;;3.43;2.87;;;;;;;15.55;100.00;97083.25;5051843;27;102162;-62
2022/07/18 02:38:17;;;;;;;3.23;2.93;;;;;;;15.59;100.00;97080.84;5070767;27;102491;-62
2022/07/18 02:40:44;;;;;;;3.23;2.93;;;;;;;15.43;100.00;97084.53;5051722;27;105683;-62
2022/07/18 02:43:11;;;;;;;3.67;2.93;;;;;;;15.22;100.00;97091.69;5086269;27;102012;-62
2022/07/18 02:45:39;;;;;;;3.67;3.37;;;;;;;14.73;100.00;97084.19;5070475;27;102366;-62
2022/07/18 02:48:09;;;;;;;2.73;2.60;;;;;;;14.69;100.00;97085.78;5068910;27;105693;-62
2022/07/18 02:50:36;;;;;;;3.10;2.73;;;;;;;14.50;100.00;97088.06;5051984;27;101902;-62
2022/07/18 02:53:03;;;;;;;3.47;3.17;;;;;;;14.19;100.00;97098.78;5070841;27;102595;-62
2022/07/18 02:55:32;;;;;;;2.90;2.70;;;;;;;13.79;100.00;97098.44;5054775;27;105948;-62
2022/07/18 02:57:58;;;;;;;3.30;3.00;;;;;;;13.85;100.00;97100.09;5052195;27;103971;-62
2022/07/18 03:00:25;;;;;;;3.33;3.00;;;;;;;14.19;100.00;97098.78;5051289;27;106141;-62
2022/07/18 03:02:52;;;;;;;3.87;3.00;;;;;;;14.47;100.00;97103.84;5051884;27;101987;-61
2022/07/18 03:05:21;;;;;;;3.73;3.30;;;;;;;14.52;100.00;97088.63;5051571;27;106323;-61
2022/07/18 03:07:48;;;;;;;3.10;2.90;;;;;;;14.53;100.00;97089.41;5051402;27;105893;-61
2022/07/18 03:10:16;;;;;;;3.00;2.80;;;;;;;14.81;100.00;97086.38;5051908;27;101973;-62
2022/07/18 03:12:43;;;;;;;3.50;3.00;;;;;;;14.95;100.00;97087.53;5047962;27;105043;-62
2022/07/18 03:15:10;;;;;;;3.30;3.10;;;;;;;14.96;100.00;97102.53;5047796;27;105796;-62
2022/07/18 03:17:38;;;;;;;3.70;3.37;;;;;;;14.94;100.00;97099.31;5051821;27;101982;-62
2022/07/18 03:20:06;;;;;;;3.67;3.30;;;;;;;14.72;100.00;97106.69;5051347;27;105403;-62
2022/07/18 03:22:35;;;;;;;3.50;3.20;;;;;;;14.86;100.00;97100.63;5053480;27;101960;-61
2022/07/18 03:25:02;;;;;;;3.30;3.00;;;;;;;15.01;100.00;97092.66;5053332;27;102371;-61
2022/07/18 03:27:29;;;;;;;3.10;2.90;;;;;;;15.03;100.00;97095.06;5052797;27;102903;-62
2022/07/18 03:29:57;;;;;;;3.60;2.87;;;;;;;15.07;100.00;97094.28;5052864;27;102008;-61
2022/07/18 03:32:24;;;;;;;3.40;3.20;;;;;;;14.86;100.00;97102.47;5053015;27;104277;-62
2022/07/18 03:34:51;;;;;;;3.00;2.73;;;;;;;14.73;100.00;97095.72;5052301;27;102527;-62
2022/07/18 03:37:18;;;;;;;3.37;3.07;;;;;;;14.53;100.00;97090.25;5053015;27;101905;-62
2022/07/18 03:39:46;;;;;;;3.50;3.20;;;;;;;14.34;100.00;97096.25;5054079;27;106135;-62
2022/07/18 03:42:13;;;;;;;6.33;3.13;;;;;;;14.14;100.00;97096.06;5052885;27;101846;-62
2022/07/18 03:44:41;;;;;;;3.37;3.17;;;;;;;14.20;100.00;97101.25;5052767;27;102586;-62
2022/07/18 03:47:08;;;;;;;4.10;3.70;;;;;;;14.26;100.00;97104.75;5052368;27;103194;-62
2022/07/18 03:49:35;;;;;;;3.40;3.03;;;;;;;14.37;100.00;97112.59;5052869;27;101842;-62
2022/07/18 03:52:03;;;;;;;3.57;3.27;;;;;;;14.61;100.00;97110.38;5051129;27;105593;-62
2022/07/18 03:54:30;;;;;;;3.67;3.37;;;;;;;14.67;100.00;97112.81;5050722;27;105993;-62
2022/07/18 03:56:59;;;;;;;2.97;2.77;;;;;;;14.93;100.00;97111.09;5051514;27;101793;-62
2022/07/18 03:59:26;;;;;;;3.37;3.17;;;;;;;14.81;100.00;97113.16;5051242;27;105186;-61
2022/07/18 04:01:53;;;;;;;3.60;3.30;;;;;;;14.84;100.00;97113.47;5053835;27;105232;-62
2022/07/18 04:04:21;;;;;;;3.23;2.93;;;;;;;15.05;100.00;97117.06;5050876;27;105335;-62
2022/07/18 04:06:48;;;;;;;3.80;3.40;;;;;;;15.08;100.00;97111.16;5050425;27;105172;-62
2022/07/18 04:09:16;;;;;;;3.20;2.87;;;;;;;15.05;100.00;97117.84;5051126;27;101775;-62
2022/07/18 04:11:42;;;;;;;3.60;3.30;;;;;;;14.99;100.00;97110.06;5052672;27;102500;-62
2022/07/18 04:14:11;;;;;;;3.20;2.87;;;;;;;15.24;100.00;97120.88;5050075;27;105247;-62
2022/07/18 04:16:39;;;;;;;3.80;3.50;;;;;;;15.17;100.00;97113.09;5050694;27;102086;-62
2022/07/18 04:19:08;;;;;;;4.60;3.60;;;;;;;15.15;100.00;97111.75;5050998;27;104871;-62
2022/07/18 04:21:35;;;;;;;3.63;3.33;;;;;;;15.21;100.00;97110.69;5053582;27;105256;-62
2022/07/18 04:24:02;;;;;;;3.40;3.10;;;;;;;15.26;100.00;97116.09;5050573;27;105434;-62
2022/07/18 04:26:29;;;;;;;2.80;2.60;;;;;;;15.46;100.00;97121.53;5050189;27;105598;-62
2022/07/18 04:28:57;;;;;;;4.27;3.87;;;;;;;15.43;100.00;97130.09;5050880;27;101966;-62
2022/07/18 04:31:25;;;;;;;4.20;3.50;;;;;;;15.42;100.00;97131.97;5050142;27;105304;-62
2022/07/18 04:33:53;;;;;;;4.30;3.90;;;;;;;15.45;100.00;97130.63;5049867;27;105770;-62
2022/07/18 04:36:20;;;;;;;4.73;3.20;;;;;;;15.59;100.00;97126.41;5050466;27;101853;-62
2022/07/18 04:38:47;;;;;;;3.83;3.03;;;;;;;15.70;100.00;97123.47;5050435;27;105028;-62
2022/07/18 04:41:16;;;;;;;3.20;2.90;;;;;;;16.03;100.00;97128.38;5050024;27;105116;-62
2022/07/18 04:43:44;;;;;;;3.37;3.07;;;;;;;16.18;100.00;97130.28;5054024;27;102010;-62
2022/07/18 04:46:10;;;;;;;3.77;3.27;;;;;;;16.29;100.00;97131.91;5049659;27;105962;-62
2022/07/18 04:48:40;;;;;;;3.40;3.20;;;;;;;16.46;100.00;97129.78;5050435;27;101904;-62
2022/07/18 04:51:08;;;;;;;3.80;3.50;;;;;;;16.61;100.00;97130.56;5052136;27;102365;-62
2022/07/18 04:53:35;;;;;;;3.57;3.10;;;;;;;16.76;100.00;97133.25;5051553;27;102895;-62
2022/07/18 04:56:02;;;;;;;4.30;3.63;;;;;;;16.84;100.00;97130.00;5050873;27;102057;-62
2022/07/18 04:58:29;;;;;;;6.20;3.50;;;;;;;16.80;100.00;97126.25;5052278;27;102388;-62
2022/07/18 05:00:56;;;;;;;3.80;3.50;;;;;;;16.93;100.00;97128.38;5050082;27;106492;-62
2022/07/18 05:03:24;;;;;;;4.83;4.10;;;;;;;16.65;100.00;97128.97;5051891;27;101845;-62
2022/07/18 05:06:00;;;;;;;3.97;3.50;;;;;;;16.74;100.00;97129.22;5054794;27;102507;-62
2022/07/18 05:08:27;;;;;;;6.20;4.10;;;;;;;16.81;100.00;97124.34;5050649;27;101800;-63
2022/07/18 05:10:54;;;;;;;4.53;4.23;;;;;;;16.96;100.00;97122.44;5052012;27;101772;-63
2022/07/18 05:13:21;;;;;;;4.30;4.00;;;;;;;17.02;100.00;97124.06;5062348;27;102509;-63
2022/07/18 05:15:49;;;;;;;4.57;3.80;;;;;;;17.34;100.00;97127.16;5053687;27;102008;-63
2022/07/18 05:18:16;;;;;;;3.57;3.30;;;;;;;17.52;100.00;97125.78;5087878;27;105597;-63
2022/07/18 05:21:36;;;;;;;3.73;3.47;;;;;;;17.72;100.00;97123.78;5071522;27;102624;-63
2022/07/18 05:24:05;;;;;;;4.77;4.37;;;;;;;17.97;100.00;97118.25;5072250;27;101724;-63
2022/07/18 05:26:40;;;;;;;4.37;3.97;;;;;;;17.74;100.00;97115.44;5053672;27;105036;-63
2022/07/18 05:29:08;;;;;;;5.33;4.40;;;;;;;17.84;100.00;97118.06;5090497;27;106712;-63
2022/07/18 05:31:35;;;;;;;5.00;4.60;;;;;;;17.86;100.00;97115.91;5053132;27;105569;-63
2022/07/18 05:34:02;;;;;;;4.87;4.47;;;;;;;17.86;100.00;97105.94;5052547;27;105924;-63
2022/07/18 05:36:29;;;;;;;4.67;4.27;;;;;;;17.57;100.00;97106.94;5053414;27;101800;-63
2022/07/18 05:38:57;;;;;;;4.93;4.27;;;;;;;17.87;100.00;97106.78;5087331;27;105216;-63
2022/07/18 05:41:28;;;;;;;4.60;4.30;;;;;;;17.80;100.00;97112.44;5051307;27;105751;-63
2022/07/18 05:43:56;;;;;;;4.83;4.33;;;;;;;17.85;100.00;97111.59;5053221;27;101917;-63
2022/07/18 05:46:45;;;;;;;5.27;4.83;;;;;;;17.73;100.00;97111.97;5053105;27;104925;-63
2022/07/18 05:49:18;;;;;;;4.97;4.30;;;;;;;17.83;100.00;97111.09;5071269;27;102874;-63
2022/07/18 05:51:45;;;;;;;4.43;4.03;;;;;;;18.12;100.00;97109.28;5074975;27;101759;-63
2022/07/18 05:54:15;;;;;;;4.70;4.17;;;;;;;18.03;100.00;97116.34;5052485;27;105365;-63
2022/07/18 05:56:53;;;;;;;4.63;4.10;;;;;;;18.14;100.00;97118.69;5053085;27;101839;-63
2022/07/18 05:59:22;;;;;;;4.27;3.93;;;;;;;18.33;100.00;97110.75;5071693;27;103111;-63
2022/07/18 06:01:49;;;;;;;5.70;3.93;;;;;;;18.37;100.00;97101.84;5052190;27;105557;-63
2022/07/18 06:04:17;;;;;;;4.73;3.90;;;;;;;18.65;100.00;97105.63;5052629;27;102034;-63
2022/07/18 06:06:48;;;;;;;5.83;3.70;;;;;;;18.50;100.00;97108.47;5071424;27;102731;-63
2022/07/18 06:09:16;;;;;;;5.07;3.80;;;;;;;18.69;100.00;97102.09;5070566;27;102546;-63
2022/07/18 06:11:43;;;;;;;4.23;3.83;;;;;;;18.47;100.00;97111.75;5070880;27;101800;-63
2022/07/18 06:14:11;;;;;;;5.20;3.70;;;;;;;18.66;100.00;97099.97;5054889;27;103875;-64
2022/07/18 06:16:39;;;;;;;6.43;4.10;;;;;;;18.87;100.00;97100.56;5071102;27;102193;-62
2022/07/18 06:19:06;;;;;;;4.33;3.73;;;;;;;19.07;100.00;97101.16;5071072;27;102940;-62
2022/07/18 06:21:33;;;;;;;4.50;3.50;;;;;;;19.44;100.00;97103.97;5069954;27;102556;-62
2022/07/18 06:24:00;;;;;;;4.20;3.80;;;;;;;19.74;100.00;97094.69;5071161;27;101877;-63
2022/07/18 06:26:29;;;;;;;6.23;4.73;;;;;;;19.57;100.00;97099.78;5052131;27;105648;-62
2022/07/18 06:28:56;;;;;;;6.90;4.97;;;;;;;19.15;100.00;97102.41;5064634;27;103085;-62
2022/07/18 06:31:24;;;;;;;5.17;4.57;;;;;;;19.42;100.00;97108.06;5086924;27;102088;-62
2022/07/18 06:33:52;;;;;;;4.50;4.10;;;;;;;19.85;100.00;97096.97;5073746;27;102388;-61
2022/07/18 06:36:25;;;;;;;6.10;3.97;;;;;;;20.01;100.00;97105.63;5070975;27;101798;-62
2022/07/18 06:38:52;;;;;;;5.43;4.30;;;;;;;19.80;100.00;97104.31;5051972;27;105330;-61
2022/07/18 06:41:20;;;;;;;4.47;3.77;;;;;;;19.96;100.00;97108.41;5070229;27;102638;-61
2022/07/18 06:43:47;;;;;;;4.93;4.33;;;;;;;19.95;100.00;97104.13;5070646;27;101928;-62
2022/07/18 06:46:19;;;;;;;4.20;3.80;;;;;;;20.14;100.00;97105.75;5052400;27;105134;-62
2022/07/18 06:48:48;;;;;;;4.40;4.00;;;;;;;20.47;100.00;97104.66;5051947;27;103677;-64
2022/07/18 06:51:15;;;;;;;5.27;4.17;;;;;;;20.57;100.00;97103.69;5070500;27;101848;-62
2022/07/18 06:53:43;;;;;;;6.27;4.63;;;;;;;20.56;100.00;97099.38;5054237;27;105490;-63
2022/07/18 06:56:16;;;;;;;5.40;4.70;;;;;;;20.62;100.00;97100.91;5077545;27;103184;-62
2022/07/18 06:58:48;;;;;;;4.47;4.10;;;;;;;20.56;100.00;97092.09;5074604;27;102579;-62
2022/07/18 07:01:16;;;;;;;5.23;3.93;;;;;;;20.65;100.00;97090.28;5073801;27;102748;-63
2022/07/18 07:03:43;;;;;;;7.03;3.83;;;;;;;20.31;100.00;97091.69;5074495;27;101860;-62
2022/07/18 07:06:19;;;;;;;4.37;3.97;;;;;;;20.50;100.00;97090.53;5073982;27;102282;-62
2022/07/18 07:08:46;;;;;;;4.10;3.80;;;;;;;20.29;100.00;97096.59;5073920;27;103098;-62
2022/07/18 07:11:15;;;;;;;4.13;3.80;;;;;;;20.61;100.00;97093.91;5074187;27;101929;-62
2022/07/18 07:13:42;;;;;;;4.97;3.30;;;;;;;20.91;100.00;97093.38;5073842;27;102355;-62
2022/07/18 07:16:10;;;;;;;3.53;3.00;;;;;;;21.26;100.00;97096.19;5073613;27;102606;-62
2022/07/18 07:18:37;;;;;;;3.37;3.07;;;;;;;21.38;100.00;97095.72;5058497;27;103256;-62
2022/07/18 07:21:23;;;;;;;3.70;3.40;;;;;;;21.82;100.00;97091.28;5072306;27;104082;-61
2022/07/18 07:23:50;;;;;;;3.20;3.00;;;;;;;21.93;100.00;97100.78;5045441;27;103472;-62
2022/07/18 07:26:19;;;;;;;3.00;2.80;;;;;;;21.92;100.00;97099.19;5055379;27;103770;-62
2022/07/18 07:28:46;;;;;;;3.77;2.70;;;;;;;22.25;100.00;97102.47;5053258;27;103954;-62
2022/07/18 07:31:14;;;;;;;3.03;2.50;;;;;;;22.44;100.00;97100.41;5073988;27;101852;-62
2022/07/18 07:33:41;;;;;;;4.03;3.00;;;;;;;22.48;100.00;97107.63;5089471;27;105563;-62
2022/07/18 07:36:13;;;;;;;3.87;2.77;;;;;;;22.57;100.00;97108.47;5073169;27;103239;-61
2022/07/18 07:38:42;;;;;;;2.90;2.60;;;;;;;22.68;100.00;97106.31;5073580;27;101909;-61
2022/07/18 07:41:09;;;;;;;2.80;2.60;;;;;;;22.31;100.00;97103.94;5056093;27;102948;-61
2022/07/18 07:43:38;;;;;;;3.30;2.60;;;;;;;21.98;100.00;97103.38;5053331;27;101867;-59
2022/07/18 07:46:07;;;;;;;2.93;2.73;;;;;;;22.49;100.00;97103.00;5034524;27;106188;-58
2022/07/18 07:48:34;;;;;;;3.43;2.33;;;;;;;22.96;100.00;97102.34;5034121;27;106246;-61
2022/07/18 07:51:07;;;;;;;3.37;2.87;;;;;;;22.78;100.00;97106.84;5034539;27;102023;-61
2022/07/18 07:53:35;;;;;;;3.00;2.80;;;;;;;22.81;100.00;97105.44;5037773;27;105759;-61
2022/07/18 07:56:07;;;;;;;2.80;2.60;;;;;;;23.38;100.00;97104.47;5054386;27;105915;-61
2022/07/18 07:58:35;;;;;;;3.17;2.83;;;;;;;23.23;100.00;97113.03;5034513;27;102209;-61
2022/07/18 08:01:02;;;;;;;2.87;2.47;;;;;;;23.58;100.00;97114.75;5034825;27;105328;-60
2022/07/18 08:03:29;;;;;;;4.50;2.50;;;;;;;23.50;100.00;97112.81;5037314;27;105641;-60
2022/07/18 08:06:11;;;;;;;3.00;2.70;;;;;;;22.96;100.00;97110.47;5055317;27;105229;-60
2022/07/18 08:08:38;;;;;;;3.00;2.43;;;;;;;23.68;100.00;97112.53;5072765;27;102587;-60
2022/07/18 08:11:08;;;;;;;3.60;2.83;;;;;;;23.99;95.26;97109.75;5071844;27;101970;-60
2022/07/18 08:13:35;;;;;;;1.83;1.73;;;;;;;23.90;78.67;97111.66;5063953;27;106489;-64
2022/07/18 08:16:21;;;;;;;1.90;1.70;;;;;;;24.40;92.76;97104.63;5088304;27;105655;-60
2022/07/18 08:18:48;;;;;;;2.30;2.10;;;;;;;23.68;83.20;97114.44;5088912;27;102041;-60
2022/07/18 08:21:15;;;;;;;2.63;2.17;;;;;;;23.77;88.61;97113.34;5054627;27;105441;-60
2022/07/18 08:23:44;;;;;;;2.57;1.97;;;;;;;24.10;79.90;97113.75;5054176;27;105540;-60
2022/07/18 08:26:23;;;;;;;2.10;2.00;;;;;;;23.68;94.36;97109.00;5057905;27;102150;-60
2022/07/18 08:28:50;;;;;;;2.10;2.00;;;;;;;24.52;98.34;97108.31;5072701;27;103094;-60
2022/07/18 08:31:18;;;;;;;2.37;2.13;;;;;;;24.59;89.51;97107.84;5054445;27;101900;-60
2022/07/18 08:33:45;;;;;;;2.27;2.00;;;;;;;24.71;85.22;97106.09;5054556;27;104996;-60
2022/07/18 08:36:13;;;;;;;2.43;2.10;;;;;;;24.94;97.92;97101.22;5056820;27;105353;-61
2022/07/18 08:38:41;;;;;;;2.70;2.23;;;;;;;24.21;93.62;97110.41;5071122;27;101896;-63
2022/07/18 08:41:23;;;;;;;1.90;1.80;;;;;;;24.98;94.13;97104.91;5059325;27;106678;-63
2022/07/18 08:43:53;;;;;;;2.57;2.00;;;;;;;25.17;85.78;97106.09;4985540;28;105769;-63
2022/07/18 08:46:28;;;;;;;3.83;2.00;;;;;;;24.86;78.62;97113.75;4956590;28;103142;-63
2022/07/18 08:48:57;;;;;;;2.40;2.20;;;;;;;24.89;84.19;97109.56;4952454;28;105819;-62
2022/07/18 08:51:25;;;;;;;3.07;2.10;;;;;;;25.37;76.37;97107.34;4953311;28;101859;-62
2022/07/18 08:53:55;;;;;;;3.60;2.30;;;;;;;25.31;84.90;97106.75;4969708;28;102486;-63
2022/07/18 08:56:29;;;;;;;2.90;2.10;;;;;;;25.94;93.59;97092.16;4952649;28;107499;-63
2022/07/18 08:59:02;;;;;;;2.80;2.30;;;;;;;25.92;86.59;97097.13;4950095;28;101909;-63
2022/07/18 09:01:30;;;;;;;2.90;2.10;;;;;;;26.19;88.08;97091.97;4933430;28;103729;-63
2022/07/18 09:06:54;;;;;;;3.03;2.20;;;;;;;26.90;87.28;97101.59;4955066;28;102305;-62
2022/07/18 09:09:21;;;;;;;2.23;1.90;;;;;;;26.92;86.03;97099.31;4972333;28;102679;-62
2022/07/18 09:11:54;;;;;;;2.10;1.90;;;;;;;27.10;76.15;97095.28;4952619;28;102052;-62
2022/07/18 09:14:40;;;;;;;2.73;1.93;;;;;;;27.46;74.96;97091.84;4968645;28;105212;-62
2022/07/18 09:17:10;;;;;;;4.33;1.80;;;;;;;27.72;66.46;97095.78;4968595;28;102557;-61
2022/07/18 09:19:39;;;;;;;3.63;1.60;;;;;;;27.95;64.77;97099.66;4949655;28;102035;-61
2022/07/18 09:22:17;;;;;;;3.60;1.60;;;;;;;28.26;56.21;97099.03;5044490;27;102542;-61
2022/07/18 09:24:54;;;;;;;2.53;1.80;;;;;;;28.26;53.55;97099.03;5070288;27;103655;-61
2022/07/18 09:27:29;;;;;;;2.73;1.70;;;;;;;28.28;54.16;97103.00;5071904;27;101712;-61
2022/07/18 09:30:20;;;;;;;1.67;1.57;;;;;;;27.96;48.92;97089.53;5072039;27;101875;-61
2022/07/18 09:32:51;;;;;;;1.70;1.60;;;;;;;27.97;52.01;97091.94;5074794;27;102873;-62
2022/07/18 09:35:26;;;;;;;1.77;1.63;;;;;;;28.10;52.55;97089.94;5072098;27;102342;-60
2022/07/18 09:37:56;;;;;;;2.50;1.55;;;;;;;28.36;47.60;97082.13;5071241;27;102503;-62
2022/07/18 09:40:25;;;;;;;1.60;1.50;;;;;;;28.30;49.60;97081.59;5071802;27;102205;-62
2022/07/18 09:42:54;;;;;;;1.73;1.50;;;;;;;27.81;48.75;97085.59;5071739;27;102341;-61
2022/07/18 09:45:31;;;;;;;1.50;1.40;;;;;;;28.39;53.06;97081.47;5052253;27;104170;-61
2022/07/18 09:48:00;;;;;;;2.97;1.23;;;;;;;28.71;46.92;97083.19;5071732;27;101738;-61
2022/07/18 09:50:33;;;;;;;1.67;1.47;;;;;;;28.77;45.05;97079.03;5071742;27;102326;-62
2022/07/18 09:53:23;;;;;;;2.20;1.53;;;;;;;29.04;46.18;97073.53;5086714;27;105998;-62
2022/07/18 09:55:53;;;;;;;3.87;1.73;;;;;;;29.20;44.87;97079.03;5074979;27;101775;-60
2022/07/18 09:58:24;;;;;;;1.55;1.45;;;;;;;29.16;44.05;97081.66;5070909;27;103703;-62
2022/07/18 10:00:54;;;;;;;2.37;1.57;;;;;;;29.29;42.52;97074.16;5071436;27;102111;-61
2022/07/18 10:03:23;;;;;;;1.73;1.38;;;;;;;29.46;42.76;97074.59;5053067;27;103942;-61
2022/07/18 10:06:23;;;;;;;3.17;1.70;;;;;;;29.67;41.67;97082.56;5070116;27;103175;-61
2022/07/18 10:08:51;;;;;;;1.48;1.38;;;;;;;29.91;42.25;97074.91;5053013;27;101804;-61
2022/07/18 10:11:19;;;;;;;1.58;1.48;;;;;;;30.17;41.31;97077.88;5071460;27;102607;-61
2022/07/18 10:13:47;;;;;;;1.40;1.30;;;;;;;29.82;38.88;97068.03;5051864;27;103909;-61
2022/07/18 10:16:33;;;;;;;1.73;1.35;;;;;;;30.11;39.42;97073.03;5052789;27;102023;-61
2022/07/18 10:19:12;;;;;;;1.50;1.40;;;;;;;30.13;40.08;97074.25;5055926;27;102479;-61
2022/07/18 10:21:41;;;;;;;2.15;1.63;;;;;;;30.20;41.50;97066.19;5071387;27;101675;-62
2022/07/18 10:24:08;;;;;;;1.85;1.30;;;;;;;30.15;35.82;97063.75;5071295;27;102306;-62
2022/07/18 10:26:36;;;;;;;1.38;1.30;;;;;;;30.54;36.00;97070.00;5070463;27;103149;-62
2022/07/18 10:29:17;;;;;;;1.55;1.45;;;;;;;30.63;37.88;97065.09;5070712;27;101742;-61
2022/07/18 10:32:04;;;;;;;1.60;1.35;;;;;;;30.73;36.87;97059.84;5071323;27;102530;-63
2022/07/18 10:34:35;;;;;;;2.03;1.20;;;;;;;30.85;35.45;97067.13;5070645;27;102590;-61
2022/07/18 10:37:10;;;;;;;3.13;1.10;;;;;;;30.94;36.87;97070.44;5070612;27;101939;-61
2022/07/18 10:39:39;;;;;;;1.45;1.00;;;;;;;31.01;35.17;97071.34;5070757;27;102550;-61
2022/07/18 10:42:25;;;;;;;1.67;1.10;;;;;;;31.21;34.14;97069.38;5073752;27;101776;-61
2022/07/18 10:45:28;;;;;;;3.83;1.20;;;;;;;31.13;33.57;97068.44;5071257;27;102345;-62
2022/07/18 10:47:57;;;;;;;1.85;1.10;;;;;;;31.09;33.87;97067.59;5070245;27;103965;-61
2022/07/18 10:51:00;;;;;;;1.20;1.08;;;;;;;31.25;34.07;97070.22;5070845;27;101901;-61
2022/07/18 10:53:56;;;;;;;1.00;1.00;;;;;;;31.40;31.98;97066.56;5071096;27;102364;-61
2022/07/18 10:57:06;;;;;;;1.40;1.10;;;;;;;31.33;32.15;97069.22;5070338;27;102536;-61
2022/07/18 10:59:35;;;;;;;1.25;1.10;;;;;;;31.15;33.29;97063.38;5030125;27;101835;-61
2022/07/18 11:02:07;;;;;;;2.55;0.90;;;;;;;31.62;30.32;97063.00;5070640;27;102934;-60
2022/07/18 11:04:39;;;;;;;0.80;0.80;;;;;;;31.51;30.30;97060.09;5055253;27;105478;-60
2022/07/18 11:07:13;;;;;;;0.90;0.90;;;;;;;31.60;28.45;97062.59;5070698;27;102413;-60
2022/07/18 11:09:45;;;;;;;1.17;1.10;;;;;;;31.56;30.13;97058.97;5069956;27;104261;-61
2022/07/18 11:12:24;;;;;;;2.25;1.00;;;;;;;31.88;28.52;97060.28;5051960;27;102330;-60
2022/07/18 11:15:12;;;;;;;0.80;0.80;;;;;;;32.13;25.25;97050.41;5070776;27;102834;-60
2022/07/18 11:18:03;;;;;;;1.38;0.70;;;;;;;32.17;26.06;97048.50;5070078;27;102739;-60
2022/07/18 11:21:00;;;;;;;0.70;0.70;;;;;;;31.66;26.12;97052.84;5070651;27;102028;-61
2022/07/18 11:23:29;;;;;;;2.55;0.80;;;;;;;31.40;26.69;97042.63;5052248;27;105322;-60
2022/07/18 11:26:02;;;;;;;1.10;1.10;;;;;;;31.43;30.06;97032.84;5069635;27;102677;-61
2022/07/18 11:28:29;;;;;;;1.00;1.00;;;;;;;31.65;29.40;97040.25;5074204;27;101722;-61
2022/07/18 11:31:05;;;;;;;1.38;1.00;;;;;;;31.34;29.22;97037.81;5069910;27;102956;-61
2022/07/18 11:33:36;;;;;;;1.00;1.00;;;;;;;31.06;28.76;97040.03;5069923;27;101953;-61
2022/07/18 11:36:40;;;;;;;0.90;0.90;;;;;;;31.76;28.25;97035.75;5051099;27;105221;-61